Time;durP1;ratioP1;P1;durP2;ratioP2;P2;SDS_P1;SDS_P2;PMS_P1;PMS_P2;Temp;Humidity;BMP_temperature;BMP_pressure;BME280_temperature;BME280_humidity;BME280_pressure;Samples;Min_cycle;Max_cycle;Signal;HPM_P1;HPM_P2
2023/08/29 00:02:22;;;;;;;6.80;2.40;;;16.60;99.90;;;;;;5104206;27;20018;-47
2023/08/29 00:04:48;;;;;;;4.22;1.80;;;16.00;99.90;;;;;;5133286;27;20073;-50
2023/08/29 00:07:14;;;;;;;6.43;2.30;;;14.40;99.90;;;;;;5133331;27;20023;-52
2023/08/29 00:09:39;;;;;;;5.28;2.53;;;15.10;99.90;;;;;;5133303;27;20027;-49
2023/08/29 00:12:05;;;;;;;12.68;2.30;;;11.30;99.90;;;;;;5132985;27;20050;-53
2023/08/29 00:14:31;;;;;;;5.13;2.10;;;14.00;99.90;;;;;;5133285;27;20064;-47
2023/08/29 00:16:57;;;;;;;4.45;2.30;;;;;;;;;;5133008;27;20094;-50
2023/08/29 00:19:23;;;;;;;5.80;2.50;;;14.20;99.90;;;;;;5133145;27;20027;-49
2023/08/29 00:21:48;;;;;;;5.85;2.35;;;16.20;99.90;;;;;;5133074;27;20445;-45
2023/08/29 00:24:14;;;;;;;5.38;2.00;;;14.90;99.90;;;;;;5133103;27;20438;-49
2023/08/29 00:26:41;;;;;;;6.82;2.45;;;14.60;99.90;;;;;;5133041;27;20026;-51
2023/08/29 00:29:07;;;;;;;6.38;2.30;;;;;;;;;;5132914;27;20020;-51
2023/08/29 00:31:32;;;;;;;3.40;1.80;;;14.50;99.90;;;;;;5132645;27;20057;-52
2023/08/29 00:33:58;;;;;;;4.85;2.28;;;14.90;99.90;;;;;;5132708;27;20015;-48
2023/08/29 00:36:24;;;;;;;5.05;2.53;;;;;;;;;;5132592;27;20038;-45
2023/08/29 00:38:49;;;;;;;5.35;1.90;;;11.40;99.90;;;;;;5132621;27;20011;-48
2023/08/29 00:41:15;;;;;;;5.32;2.03;;;15.60;99.90;;;;;;5132786;27;20058;-53
2023/08/29 00:43:41;;;;;;;5.95;2.42;;;16.40;99.90;;;;;;5132743;27;20031;-52
2023/08/29 00:46:06;;;;;;;8.98;2.90;;;15.20;99.90;;;;;;5132548;27;20023;-51
2023/08/29 00:48:33;;;;;;;4.95;2.53;;;15.00;99.90;;;;;;5132512;27;20019;-48
2023/08/29 00:50:59;;;;;;;4.97;2.17;;;16.40;99.90;;;;;;5132481;27;20035;-50
2023/08/29 00:53:25;;;;;;;6.05;2.17;;;15.10;99.90;;;;;;5132390;27;20072;-56
2023/08/29 00:55:52;;;;;;;8.18;2.88;;;15.20;99.90;;;;;;5131622;27;20022;-45
2023/08/29 00:58:18;;;;;;;4.47;2.28;;;;;;;;;;5132349;27;20034;-56
2023/08/29 01:00:45;;;;;;;6.78;2.50;;;14.10;99.90;;;;;;5121986;27;20043;-48
2023/08/29 01:03:11;;;;;;;4.28;2.10;;;15.10;99.90;;;;;;5128004;27;20062;-50
2023/08/29 01:05:37;;;;;;;5.13;2.40;;;;;;;;;;5132493;27;20441;-53
2023/08/29 01:08:03;;;;;;;7.00;2.55;;;16.20;99.90;;;;;;5131668;27;20483;-54
2023/08/29 01:10:51;;;;;;;5.95;2.78;;;15.10;99.90;;;;;;5131842;27;20505;-49
2023/08/29 01:13:25;;;;;;;4.97;2.55;;;15.50;99.90;;;;;;5131996;27;20027;-50
2023/08/29 01:15:55;;;;;;;8.02;2.67;;;14.20;99.90;;;;;;5131962;27;20168;-47
2023/08/29 01:18:21;;;;;;;4.90;2.20;;;14.30;99.90;;;;;;5131947;27;20088;-53
2023/08/29 01:20:49;;;;;;;3.53;1.92;;;10.50;99.90;;;;;;5131964;27;20531;-49
2023/08/29 01:23:29;;;;;;;4.47;2.10;;;14.60;99.90;;;;;;5131918;27;20152;-47
2023/08/29 01:26:16;;;;;;;3.47;1.67;;;15.70;99.90;;;;;;5131910;27;20148;-52
2023/08/29 01:28:44;;;;;;;3.67;1.70;;;15.30;99.90;;;;;;5131863;27;20038;-54
2023/08/29 01:31:10;;;;;;;5.20;2.22;;;15.90;99.90;;;;;;5125093;27;20146;-52
2023/08/29 01:33:38;;;;;;;5.57;1.80;;;;;;;;;;5131590;27;20039;-45
2023/08/29 01:36:04;;;;;;;4.88;1.98;;;15.50;99.90;;;;;;5131689;27;20038;-46
2023/08/29 01:38:30;;;;;;;5.07;2.22;;;10.70;99.90;;;;;;5131479;27;20019;-55
2023/08/29 01:40:56;;;;;;;6.28;2.03;;;13.10;99.90;;;;;;5131558;27;20043;-51
2023/08/29 01:43:21;;;;;;;5.78;1.77;;;10.80;99.90;;;;;;5131644;27;20019;-51
2023/08/29 01:45:47;;;;;;;3.63;2.05;;;15.80;99.90;;;;;;5131653;27;20035;-47
2023/08/29 01:48:13;;;;;;;3.47;1.63;;;15.20;99.90;;;;;;5131671;27;20030;-48
2023/08/29 01:50:40;;;;;;;5.63;1.73;;;16.30;99.90;;;;;;5131486;27;20023;-46
2023/08/29 01:53:06;;;;;;;5.63;1.73;;;;;;;;;;5131187;27;20514;-46
2023/08/29 01:55:33;;;;;;;3.53;1.75;;;15.30;99.90;;;;;;5131502;28;20032;-51
2023/08/29 01:58:01;;;;;;;6.10;2.47;;;15.30;99.90;;;;;;5131393;28;20026;-52
2023/08/29 02:00:27;;;;;;;7.20;2.00;;;15.10;99.90;;;;;;5123164;27;20036;-53
2023/08/29 02:02:53;;;;;;;4.55;1.80;;;14.80;99.90;;;;;;5106592;28;20027;-46
2023/08/29 02:05:19;;;;;;;4.07;2.00;;;;;;;;;;5131357;28;20091;-47
2023/08/29 02:07:44;;;;;;;3.85;2.55;;;14.80;99.90;;;;;;5133680;27;20031;-49
2023/08/29 02:10:10;;;;;;;3.70;1.90;;;16.80;99.90;;;;;;5135451;27;20027;-51
2023/08/29 02:12:36;;;;;;;4.72;1.73;;;11.50;99.90;;;;;;5135562;27;20034;-48
2023/08/29 02:15:02;;;;;;;4.47;2.30;;;15.30;99.90;;;;;;5135343;27;20037;-52
2023/08/29 02:17:28;;;;;;;4.03;1.80;;;14.80;99.90;;;;;;5135635;27;20023;-46
2023/08/29 02:19:54;;;;;;;4.65;2.00;;;15.00;99.90;;;;;;5135456;27;20024;-49
2023/08/29 02:22:19;;;;;;;4.50;2.00;;;15.70;99.90;;;;;;5135031;27;20030;-55
2023/08/29 02:24:47;;;;;;;5.05;2.08;;;15.60;99.90;;;;;;5117594;27;20031;-48
2023/08/29 02:27:13;;;;;;;5.78;1.95;;;;;;;;;;5130576;27;20030;-53
2023/08/29 02:29:39;;;;;;;3.00;1.70;;;11.90;99.90;;;;;;5117111;27;20058;-45
2023/08/29 02:32:05;;;;;;;4.22;2.33;;;;;;;;;;5134133;27;20078;-48
2023/08/29 02:34:30;;;;;;;6.28;2.03;;;10.80;99.90;;;;;;5122262;27;20467;-46
2023/08/29 02:36:56;;;;;;;3.10;1.40;;;17.00;99.90;;;;;;5134973;27;20031;-48
2023/08/29 02:39:22;;;;;;;5.43;1.98;;;16.60;99.90;;;;;;5135064;27;20021;-52
2023/08/29 02:41:48;;;;;;;5.50;1.75;;;14.50;99.90;;;;;;5123626;27;20031;-48
2023/08/29 02:44:14;;;;;;;3.75;2.00;;;10.80;99.90;;;;;;5132251;27;20386;-50
2023/08/29 02:46:40;;;;;;;5.38;2.10;;;;;;;;;;5134977;27;20434;-51
2023/08/29 02:49:06;;;;;;;5.53;2.20;;;11.00;99.90;;;;;;5134850;27;20027;-55
2023/08/29 02:51:32;;;;;;;5.80;2.10;;;;;;;;;;5134380;27;20493;-53
2023/08/29 02:53:57;;;;;;;3.80;1.95;;;16.80;99.90;;;;;;5134921;27;20391;-48
2023/08/29 02:56:23;;;;;;;5.78;1.98;;;16.40;99.90;;;;;;5134622;27;20023;-51
2023/08/29 02:58:50;;;;;;;8.70;2.70;;;16.90;99.90;;;;;;5123643;27;20020;-50
2023/08/29 03:01:16;;;;;;;4.72;1.80;;;;;;;;;;5131296;27;20078;-53
2023/08/29 03:03:42;;;;;;;3.70;1.90;;;10.40;99.90;;;;;;5134680;27;20114;-51
2023/08/29 03:06:07;;;;;;;4.90;2.10;;;16.90;99.90;;;;;;5115893;27;20103;-48
2023/08/29 03:08:33;;;;;;;6.47;2.00;;;15.60;99.90;;;;;;5134385;27;20481;-50
2023/08/29 03:11:04;;;;;;;3.45;1.80;;;17.00;99.90;;;;;;5134511;27;20566;-52
2023/08/29 03:13:30;;;;;;;4.32;2.10;;;11.60;99.90;;;;;;5134368;27;20038;-51
2023/08/29 03:15:59;;;;;;;4.22;1.90;;;;;;;;;;5134332;27;20487;-46
2023/08/29 03:18:27;;;;;;;6.87;1.97;;;15.50;99.90;;;;;;5133452;27;20107;-56
2023/08/29 03:20:54;;;;;;;7.93;1.90;;;;;;;;;;5134391;27;20639;-45
2023/08/29 03:23:19;;;;;;;4.38;2.58;;;15.20;99.90;;;;;;5133876;27;20031;-58
2023/08/29 03:25:45;;;;;;;4.30;1.50;;;16.70;99.90;;;;;;5134246;27;20034;-46
2023/08/29 03:28:11;;;;;;;3.10;1.60;;;10.90;99.90;;;;;;5134086;27;20479;-50
2023/08/29 03:30:37;;;;;;;5.38;2.20;;;;;;;;;;5133922;27;20391;-48
2023/08/29 03:33:03;;;;;;;4.13;1.98;;;11.60;99.90;;;;;;5103665;28;20392;-47
2023/08/29 03:35:28;;;;;;;5.28;1.73;;;14.80;99.90;;;;;;5131315;27;20031;-53
2023/08/29 03:37:54;;;;;;;5.90;2.05;;;15.60;99.90;;;;;;5133716;27;20080;-50
2023/08/29 03:40:20;;;;;;;5.05;2.03;;;;;;;;;;5133722;27;20016;-51
2023/08/29 03:42:46;;;;;;;3.00;1.88;;;11.20;99.90;;;;;;5133909;27;20050;-48
2023/08/29 03:45:12;;;;;;;4.50;1.83;;;14.00;99.90;;;;;;5133831;27;20111;-54
2023/08/29 03:47:38;;;;;;;3.22;1.55;;;14.10;99.90;;;;;;5133634;27;20064;-53
2023/08/29 03:50:05;;;;;;;3.63;1.77;;;14.20;99.90;;;;;;5133591;27;20071;-49
2023/08/29 03:52:31;;;;;;;3.00;1.77;;;11.20;99.90;;;;;;5133455;27;20038;-57
2023/08/29 03:54:57;;;;;;;3.75;2.03;;;11.40;99.90;;;;;;5133517;27;20030;-56
2023/08/29 03:57:23;;;;;;;3.92;1.70;;;15.30;99.90;;;;;;5133449;27;20027;-53
2023/08/29 03:59:49;;;;;;;3.35;1.70;;;13.10;99.90;;;;;;5133611;27;20036;-53
2023/08/29 04:02:15;;;;;;;4.70;1.65;;;14.90;99.90;;;;;;5133147;27;20051;-49
2023/08/29 04:04:44;;;;;;;2.83;1.50;;;10.80;99.90;;;;;;5133522;27;20092;-49
2023/08/29 04:07:10;;;;;;;4.75;1.90;;;15.60;99.90;;;;;;5133181;27;20518;-55
2023/08/29 04:09:36;;;;;;;4.78;1.85;;;12.10;99.90;;;;;;5133360;27;20023;-51
2023/08/29 04:12:02;;;;;;;5.63;2.28;;;15.50;99.90;;;;;;5133276;27;20043;-48
2023/08/29 04:14:28;;;;;;;4.32;1.85;;;10.50;99.90;;;;;;5133248;27;20038;-49
2023/08/29 04:16:54;;;;;;;3.85;1.80;;;;;;;;;;5133096;27;20050;-46
2023/08/29 04:19:20;;;;;;;3.80;1.90;;;10.20;99.90;;;;;;5133353;27;20341;-51
2023/08/29 04:21:46;;;;;;;5.28;1.85;;;16.60;99.90;;;;;;5133139;27;20475;-51
2023/08/29 04:24:12;;;;;;;3.58;1.65;;;;;;;;;;5133092;27;20019;-53
2023/08/29 04:26:37;;;;;;;5.45;1.90;;;15.70;99.90;;;;;;5132981;27;20083;-54
2023/08/29 04:29:03;;;;;;;2.67;1.50;;;10.20;99.90;;;;;;5133130;27;20015;-52
2023/08/29 04:31:29;;;;;;;4.60;1.90;;;;;;;;;;5131606;27;20499;-52
2023/08/29 04:33:55;;;;;;;5.63;1.75;;;14.30;99.90;;;;;;5118287;27;20099;-51
2023/08/29 04:36:21;;;;;;;6.75;1.88;;;;;;;;;;5132763;27;20030;-50
2023/08/29 04:38:49;;;;;;;3.92;2.03;;;16.00;99.90;;;;;;5105506;28;20035;-51
2023/08/29 04:41:15;;;;;;;3.65;1.73;;;15.60;99.90;;;;;;5112138;28;20100;-49
2023/08/29 04:43:40;;;;;;;4.05;1.80;;;11.70;99.90;;;;;;5112044;28;20051;-50
2023/08/29 04:46:09;;;;;;;4.57;1.92;;;13.20;99.90;;;;;;5111985;28;20383;-51
2023/08/29 04:48:35;;;;;;;6.35;2.00;;;15.20;99.90;;;;;;5111778;28;20051;-46
2023/08/29 04:51:04;;;;;;;3.83;1.77;;;15.00;99.90;;;;;;5111880;28;20023;-48
2023/08/29 04:53:31;;;;;;;6.85;2.00;;;13.90;99.90;;;;;;5112002;28;20076;-48
2023/08/29 04:56:04;;;;;;;3.53;1.77;;;13.90;99.90;;;;;;5111539;28;20420;-45
2023/08/29 04:58:30;;;;;;;3.25;1.60;;;16.50;99.90;;;;;;5111722;28;20696;-46
2023/08/29 05:00:59;;;;;;;3.30;1.52;;;15.30;99.90;;;;;;5111448;28;20123;-49
2023/08/29 05:03:25;;;;;;;3.75;1.70;;;;;;;;;;5111592;28;20057;-48
2023/08/29 05:05:52;;;;;;;4.18;1.90;;;;;;;;;;5111703;28;20030;-50
2023/08/29 05:08:18;;;;;;;3.08;1.70;;;14.40;99.90;;;;;;5111679;28;20444;-52
2023/08/29 05:10:43;;;;;;;5.95;1.98;;;15.00;99.90;;;;;;5111442;28;20058;-45
2023/08/29 05:13:09;;;;;;;6.38;2.08;;;14.30;99.90;;;;;;5111295;28;20046;-45
2023/08/29 05:15:35;;;;;;;5.75;2.03;;;11.30;99.90;;;;;;5111601;28;20024;-47
2023/08/29 05:18:01;;;;;;;3.90;1.83;;;;;;;;;;5111480;28;20027;-46
2023/08/29 05:20:27;;;;;;;5.05;1.67;;;14.40;99.90;;;;;;5111309;28;20024;-44
2023/08/29 05:22:53;;;;;;;6.90;2.20;;;;;;;;;;5111338;28;20024;-45
2023/08/29 05:25:18;;;;;;;4.15;1.50;;;;;;;;;;5111441;28;20105;-49
2023/08/29 05:27:44;;;;;;;3.92;1.80;;;15.30;99.90;;;;;;5110950;28;20032;-45
2023/08/29 05:30:10;;;;;;;6.43;2.28;;;15.20;99.90;;;;;;5111185;28;20016;-53
2023/08/29 05:32:39;;;;;;;3.78;1.60;;;15.10;99.90;;;;;;5111046;28;20035;-48
2023/08/29 05:35:07;;;;;;;4.30;2.03;;;16.00;99.90;;;;;;5125982;27;20113;-48
2023/08/29 05:37:33;;;;;;;3.97;1.85;;;;;;;;;;5131561;27;20094;-48
2023/08/29 05:39:58;;;;;;;6.57;2.30;;;11.50;99.90;;;;;;5131733;27;20015;-47
2023/08/29 05:42:25;;;;;;;4.03;1.90;;;;;;;;;;5131034;27;20142;-49
2023/08/29 05:44:50;;;;;;;3.33;1.70;;;15.50;99.90;;;;;;5131594;27;20025;-51
2023/08/29 05:47:16;;;;;;;6.85;2.65;;;14.30;99.90;;;;;;5131562;27;20031;-50
2023/08/29 05:49:42;;;;;;;5.95;2.35;;;14.60;99.90;;;;;;5131494;27;20095;-48
2023/08/29 05:52:07;;;;;;;4.93;2.30;;;16.00;99.90;;;;;;5131187;27;20079;-53
2023/08/29 05:54:36;;;;;;;2.97;1.80;;;;;;;;;;5131336;27;20015;-46
2023/08/29 05:57:03;;;;;;;2.93;1.60;;;;;;;;;;5131463;27;20027;-49
2023/08/29 05:59:28;;;;;;;3.85;1.85;;;15.60;99.90;;;;;;5131253;28;20080;-49
2023/08/29 06:01:54;;;;;;;7.75;2.03;;;;;;;;;;5131265;28;20051;-54
2023/08/29 06:04:21;;;;;;;4.05;1.88;;;13.00;99.90;;;;;;5131234;27;20040;-51
2023/08/29 06:06:50;;;;;;;2.67;1.67;;;15.40;99.90;;;;;;5131391;28;20027;-49
2023/08/29 06:09:16;;;;;;;5.32;1.65;;;14.70;99.90;;;;;;5131295;27;20048;-47
2023/08/29 06:11:42;;;;;;;2.75;1.50;;;15.50;99.90;;;;;;5112736;28;20043;-50
2023/08/29 06:14:07;;;;;;;4.55;1.88;;;16.90;99.90;;;;;;5131322;27;20119;-51
2023/08/29 06:16:33;;;;;;;3.38;1.52;;;;;;;;;;5131270;28;20027;-47
2023/08/29 06:18:59;;;;;;;5.40;1.48;;;15.70;99.90;;;;;;5131355;28;20102;-45
2023/08/29 06:21:25;;;;;;;5.53;1.67;;;;;;;;;;5131122;28;20062;-49
2023/08/29 06:23:50;;;;;;;3.60;1.73;;;13.00;99.90;;;;;;5112906;28;20110;-52
2023/08/29 06:26:16;;;;;;;3.13;1.67;;;15.30;99.90;;;;;;5131046;27;20043;-49
2023/08/29 06:28:42;;;;;;;5.97;1.80;;;15.10;99.90;;;;;;5131330;28;20023;-48
2023/08/29 06:31:08;;;;;;;3.75;1.40;;;15.80;99.90;;;;;;5131108;28;20463;-49
2023/08/29 06:33:34;;;;;;;3.38;1.65;;;16.20;99.90;;;;;;5116563;28;20145;-48
2023/08/29 06:36:00;;;;;;;5.60;1.77;;;15.80;99.90;;;;;;5131150;27;20027;-50
2023/08/29 06:38:26;;;;;;;3.75;1.38;;;14.90;99.90;;;;;;5131126;27;20120;-53
2023/08/29 06:40:55;;;;;;;3.15;1.50;;;16.20;99.90;;;;;;5131002;27;20031;-50
2023/08/29 06:43:21;;;;;;;4.85;1.73;;;16.60;99.90;;;;;;5131166;27;20095;-49
2023/08/29 06:45:47;;;;;;;3.70;1.77;;;16.80;99.90;;;;;;5131000;27;20037;-56
2023/08/29 06:48:13;;;;;;;3.35;1.70;;;16.20;99.90;;;;;;5128139;28;20027;-48
2023/08/29 06:50:39;;;;;;;4.72;1.85;;;14.80;99.90;;;;;;5111869;27;20067;-47
2023/08/29 06:53:05;;;;;;;4.60;1.88;;;16.00;99.90;;;;;;5117380;27;20030;-48
2023/08/29 06:55:34;;;;;;;5.13;1.83;;;15.10;99.90;;;;;;5116557;27;20383;-49
2023/08/29 06:58:06;;;;;;;4.28;1.83;;;12.00;99.90;;;;;;5117000;27;20042;-49
2023/08/29 07:00:32;;;;;;;4.65;1.75;;;16.50;99.90;;;;;;5121463;27;20399;-45
2023/08/29 07:02:59;;;;;;;2.85;1.50;;;17.60;99.90;;;;;;5113989;28;20023;-54
2023/08/29 07:05:26;;;;;;;5.22;1.80;;;;;;;;;;5113972;28;20020;-55
2023/08/29 07:07:51;;;;;;;3.25;1.60;;;16.70;99.90;;;;;;5113781;28;20027;-51
2023/08/29 07:10:17;;;;;;;3.50;1.83;;;16.90;99.90;;;;;;5113899;28;20050;-49
2023/08/29 07:12:43;;;;;;;5.30;2.47;;;15.30;99.90;;;;;;5113616;27;20397;-45
2023/08/29 07:15:09;;;;;;;4.82;1.95;;;16.70;99.90;;;;;;5114120;28;20024;-53
2023/08/29 07:17:35;;;;;;;7.97;1.92;;;16.80;99.90;;;;;;5113753;28;20032;-47
2023/08/29 07:20:11;;;;;;;4.50;1.80;;;15.60;99.90;;;;;;5113882;27;20032;-49
2023/08/29 07:22:40;;;;;;;3.70;1.90;;;13.70;99.90;;;;;;5113804;28;20081;-50
2023/08/29 07:25:06;;;;;;;4.90;2.28;;;15.90;99.90;;;;;;5113893;28;20058;-47
2023/08/29 07:27:32;;;;;;;7.28;2.08;;;;;;;;;;5113800;28;20051;-45
2023/08/29 07:29:58;;;;;;;3.08;1.85;;;16.10;99.90;;;;;;5127983;27;20024;-51
2023/08/29 07:32:24;;;;;;;3.55;1.98;;;16.70;99.90;;;;;;5117610;27;20701;-45
2023/08/29 07:34:50;;;;;;;4.00;1.65;;;19.60;99.90;;;;;;5126170;27;20106;-51
2023/08/29 07:37:16;;;;;;;3.30;1.60;;;13.30;99.90;;;;;;5134066;27;20493;-51
2023/08/29 07:39:43;;;;;;;2.83;1.58;;;17.30;99.90;;;;;;5134105;27;20027;-57
2023/08/29 07:42:08;;;;;;;3.90;1.70;;;16.60;99.90;;;;;;5131169;27;20098;-54
2023/08/29 07:44:34;;;;;;;5.53;2.00;;;17.30;99.90;;;;;;5113451;28;20052;-55
2023/08/29 07:47:00;;;;;;;6.15;2.13;;;16.50;99.90;;;;;;5113184;28;20111;-48
2023/08/29 07:49:26;;;;;;;5.32;2.35;;;17.20;99.90;;;;;;5116233;27;20145;-51
2023/08/29 07:51:53;;;;;;;4.82;1.95;;;;;;;;;;5114504;27;20504;-50
2023/08/29 07:54:22;;;;;;;2.90;1.63;;;16.50;99.90;;;;;;5099336;28;20255;-49
2023/08/29 07:56:48;;;;;;;6.53;2.15;;;;;;;;;;5094744;28;20490;-49
2023/08/29 07:59:13;;;;;;;4.82;1.88;;;18.20;99.90;;;;;;5112842;28;20050;-56
2023/08/29 08:01:40;;;;;;;4.60;1.95;;;17.50;99.90;;;;;;5118780;27;20115;-43
2023/08/29 08:04:06;;;;;;;5.28;1.73;;;16.60;99.90;;;;;;5107836;27;20114;-44
2023/08/29 08:06:32;;;;;;;10.30;2.20;;;;;;;;;;5114306;27;20491;-51
2023/08/29 08:08:58;;;;;;;6.45;2.03;;;16.60;99.90;;;;;;5115391;27;20020;-48
2023/08/29 08:11:24;;;;;;;4.38;1.95;;;;;;;;;;5112283;27;20038;-47
2023/08/29 08:13:50;;;;;;;4.60;2.22;;;17.00;99.90;;;;;;5112622;28;20020;-47
2023/08/29 08:16:16;;;;;;;4.95;2.35;;;16.70;99.90;;;;;;5112375;28;20039;-51
2023/08/29 08:18:42;;;;;;;7.93;2.78;;;18.90;99.90;;;;;;5120774;27;20031;-45
2023/08/29 08:21:08;;;;;;;6.05;2.83;;;;;;;;;;5116935;27;20051;-45
2023/08/29 08:23:34;;;;;;;6.03;2.20;;;;;;;;;;5111724;28;20380;-47
2023/08/29 08:25:59;;;;;;;6.15;3.33;;;18.10;99.90;;;;;;5112504;28;20036;-47
2023/08/29 08:28:25;;;;;;;5.00;2.40;;;19.10;99.90;;;;;;5112305;28;20020;-44
2023/08/29 08:30:51;;;;;;;7.28;2.72;;;13.30;99.90;;;;;;5112361;28;20401;-52
2023/08/29 08:33:16;;;;;;;5.65;2.70;;;19.10;99.90;;;;;;5112235;28;20127;-49
2023/08/29 08:35:43;;;;;;;4.60;2.83;;;18.60;99.90;;;;;;5132256;27;20023;-50
2023/08/29 08:38:08;;;;;;;5.43;2.33;;;17.30;99.90;;;;;;5132950;27;20028;-43
2023/08/29 08:40:36;;;;;;;5.40;2.80;;;19.50;99.90;;;;;;5132736;27;20012;-49
2023/08/29 08:43:05;;;;;;;7.25;2.28;;;17.60;99.90;;;;;;5132341;27;20471;-52
2023/08/29 08:45:32;;;;;;;6.65;2.38;;;18.70;99.90;;;;;;5125314;27;20064;-51
2023/08/29 08:48:02;;;;;;;5.15;2.35;;;18.60;99.90;;;;;;5093643;28;20039;-49
2023/08/29 08:50:28;;;;;;;4.38;2.22;;;17.90;99.90;;;;;;5111098;28;20035;-50
2023/08/29 08:52:54;;;;;;;4.43;2.10;;;;;;;;;;5130231;27;20027;-49
2023/08/29 08:55:19;;;;;;;5.55;2.88;;;19.30;99.90;;;;;;5129256;27;20054;-54
2023/08/29 08:57:46;;;;;;;5.85;2.30;;;19.00;99.90;;;;;;5131961;27;20057;-49
2023/08/29 09:00:12;;;;;;;4.95;2.15;;;19.50;99.90;;;;;;5120860;27;20028;-48
2023/08/29 09:02:40;;;;;;;4.25;2.10;;;18.20;99.90;;;;;;5123836;27;20038;-54
2023/08/29 09:05:06;;;;;;;3.67;2.08;;;18.60;99.90;;;;;;5117480;27;20024;-49
2023/08/29 09:07:39;;;;;;;3.88;1.98;;;20.00;99.90;;;;;;5124085;27;20026;-53
2023/08/29 09:10:15;;;;;;;4.13;2.10;;;17.80;99.90;;;;;;5125262;27;20022;-55
2023/08/29 09:12:51;;;;;;;6.10;2.65;;;17.40;99.90;;;;;;5111145;28;20122;-47
2023/08/29 09:15:22;;;;;;;3.78;1.85;;;18.90;99.90;;;;;;5093215;28;20021;-51
2023/08/29 09:17:53;;;;;;;4.03;1.75;;;18.80;99.90;;;;;;5115700;27;20531;-48
2023/08/29 09:20:20;;;;;;;5.13;1.80;;;17.70;99.90;;;;;;5113837;27;20046;-50
2023/08/29 09:22:47;;;;;;;3.72;1.67;;;17.90;99.90;;;;;;5124521;27;20054;-44
2023/08/29 09:25:13;;;;;;;5.90;2.25;;;18.90;99.90;;;;;;5125389;27;20023;-48
2023/08/29 09:27:44;;;;;;;3.28;1.83;;;19.00;99.90;;;;;;5120222;27;20102;-51
2023/08/29 09:30:13;;;;;;;6.88;1.52;;;19.10;99.90;;;;;;5115551;27;20518;-50
2023/08/29 09:32:43;;;;;;;3.33;1.80;;;19.30;99.90;;;;;;5116351;27;20031;-44
2023/08/29 09:35:12;;;;;;;4.00;1.50;;;19.70;99.90;;;;;;5117023;27;20016;-54
2023/08/29 09:37:47;;;;;;;2.42;1.45;;;19.20;99.90;;;;;;5111057;28;20034;-50
2023/08/29 09:40:17;;;;;;;4.80;1.55;;;19.60;99.90;;;;;;5110876;28;20042;-51
2023/08/29 09:42:55;;;;;;;2.88;1.25;;;14.80;99.90;;;;;;5124096;27;20059;-48
2023/08/29 09:45:21;;;;;;;4.53;1.40;;;19.80;99.90;;;;;;5110843;28;20110;-48
2023/08/29 09:47:46;;;;;;;2.38;1.35;;;21.50;99.90;;;;;;5110862;28;20115;-47
2023/08/29 09:50:12;;;;;;;4.25;1.23;;;19.90;99.90;;;;;;5111491;28;20421;-47
2023/08/29 09:52:39;;;;;;;4.43;1.42;;;18.80;99.90;;;;;;5110737;28;20036;-48
2023/08/29 09:55:09;;;;;;;2.70;1.30;;;19.60;99.90;;;;;;5110794;28;20012;-48
2023/08/29 09:57:37;;;;;;;3.90;1.30;;;20.40;99.90;;;;;;5110606;28;20011;-54
2023/08/29 10:00:04;;;;;;;3.10;1.20;;;19.70;99.90;;;;;;5110569;28;20027;-50
2023/08/29 10:02:30;;;;;;;2.15;1.20;;;;;;;;;;5110381;28;20098;-49
2023/08/29 10:05:05;;;;;;;3.28;1.20;;;20.10;99.90;;;;;;5110452;28;20036;-47
2023/08/29 10:07:45;;;;;;;2.95;1.17;;;20.80;99.90;;;;;;5110679;28;20024;-50
2023/08/29 10:10:11;;;;;;;3.42;1.20;;;21.00;99.90;;;;;;5110608;28;20028;-52
2023/08/29 10:12:40;;;;;;;2.83;1.30;;;20.30;99.90;;;;;;5113170;28;20027;-44
2023/08/29 10:15:06;;;;;;;;;;;20.60;99.90;;;;;;5111143;28;20471;-45
2023/08/29 10:17:34;;;;;;;2.10;0.90;;;21.40;99.90;;;;;;5110487;28;19908;-56
2023/08/29 10:20:04;;;;;;;2.72;1.20;;;21.90;99.90;;;;;;5110540;28;20402;-48
2023/08/29 10:22:30;;;;;;;1.58;0.95;;;21.30;99.90;;;;;;5092113;28;20031;-50
2023/08/29 10:24:58;;;;;;;2.65;1.10;;;21.80;99.90;;;;;;5130362;28;20024;-45
2023/08/29 10:27:24;;;;;;;1.65;0.90;;;21.90;99.90;;;;;;5131138;27;20402;-51
2023/08/29 10:29:50;;;;;;;1.92;1.08;;;23.60;99.90;;;;;;5135098;27;20095;-49
2023/08/29 10:32:16;;;;;;;3.63;1.08;;;25.20;99.90;;;;;;5129960;27;20034;-48
2023/08/29 10:34:41;;;;;;;1.67;0.70;;;23.10;99.90;;;;;;5125614;27;20448;-47
2023/08/29 10:37:16;;;;;;;2.65;1.15;;;23.80;99.90;;;;;;5135033;27;20023;-50
2023/08/29 10:39:43;;;;;;;1.75;1.00;;;23.20;99.90;;;;;;5135163;27;20038;-45
2023/08/29 10:42:09;;;;;;;2.05;0.90;;;;;;;;;;5134573;27;20020;-49
2023/08/29 10:44:36;;;;;;;3.25;1.13;;;23.00;99.90;;;;;;5131834;27;20027;-45
2023/08/29 10:47:30;;;;;;;1.27;0.85;;;26.10;99.90;;;;;;5122277;27;20149;-46
2023/08/29 10:49:58;;;;;;;1.80;0.90;;;25.20;99.90;;;;;;5114361;28;20111;-43
2023/08/29 10:52:23;;;;;;;7.18;1.42;;;25.50;99.90;;;;;;5114016;28;20047;-45
2023/08/29 10:55:09;;;;;;;5.13;1.00;;;20.20;99.90;;;;;;5113895;28;20419;-46
2023/08/29 10:57:35;;;;;;;2.75;0.98;;;22.00;99.90;;;;;;5115777;27;20027;-49
2023/08/29 11:00:14;;;;;;;1.77;0.82;;;23.00;99.90;;;;;;5117382;27;20480;-45
2023/08/29 11:02:41;;;;;;;1.98;1.00;;;21.90;99.90;;;;;;5131263;27;20047;-45
2023/08/29 11:05:07;;;;;;;2.15;0.95;;;;;;;;;;5132640;27;20031;-50
2023/08/29 11:07:34;;;;;;;2.83;1.00;;;;;;;;;;5130905;27;20030;-47
2023/08/29 11:10:13;;;;;;;2.40;0.82;;;23.30;99.90;;;;;;5133103;27;20035;-47
2023/08/29 11:13:01;;;;;;;2.20;0.80;;;22.80;99.90;;;;;;5132839;27;20035;-46
2023/08/29 11:15:49;;;;;;;1.23;0.80;;;19.10;99.90;;;;;;5133947;27;20513;-45
2023/08/29 11:18:23;;;;;;;2.33;0.70;;;21.40;99.90;;;;;;5134313;27;20420;-46
2023/08/29 11:20:51;;;;;;;2.50;1.00;;;23.10;99.90;;;;;;5134341;27;20023;-54
2023/08/29 11:23:19;;;;;;;1.55;0.70;;;23.90;99.90;;;;;;5134073;27;20030;-54
2023/08/29 11:25:49;;;;;;;1.83;0.70;;;23.40;99.90;;;;;;5134211;27;20015;-53
2023/08/29 11:28:16;;;;;;;1.65;0.93;;;24.60;99.90;;;;;;5130430;27;20024;-46
2023/08/29 11:30:42;;;;;;;2.03;0.98;;;23.60;99.90;;;;;;5121421;27;20027;-52
2023/08/29 11:33:08;;;;;;;1.83;0.90;;;24.30;99.90;;;;;;5103814;27;20035;-52
2023/08/29 11:35:33;;;;;;;2.47;0.93;;;24.20;99.90;;;;;;5127076;27;20092;-54
2023/08/29 11:37:59;;;;;;;2.53;1.10;;;24.10;99.90;;;;;;5105205;28;20027;-55
2023/08/29 11:40:27;;;;;;;1.55;0.80;;;24.60;99.90;;;;;;5115683;27;20020;-44
2023/08/29 11:42:52;;;;;;;1.80;0.80;;;24.00;99.90;;;;;;5126241;27;20023;-47
2023/08/29 11:45:18;;;;;;;1.88;0.95;;;;;;;;;;5124666;27;20023;-47
2023/08/29 11:47:47;;;;;;;2.30;1.23;;;23.10;99.90;;;;;;5113838;27;20560;-44
2023/08/29 11:50:13;;;;;;;1.63;0.93;;;22.90;99.90;;;;;;5124518;27;20042;-48
2023/08/29 11:52:38;;;;;;;1.30;0.70;;;24.00;99.90;;;;;;5127386;27;20039;-42
2023/08/29 11:55:08;;;;;;;1.42;0.90;;;24.20;99.90;;;;;;5113082;28;20023;-48
2023/08/29 11:57:34;;;;;;;2.53;1.20;;;23.60;99.90;;;;;;5112910;28;20487;-47
2023/08/29 12:00:00;;;;;;;1.40;0.90;;;;;;;;;;5121206;27;20133;-48
2023/08/29 12:02:26;;;;;;;2.67;1.00;;;22.30;99.90;;;;;;5111219;28;20063;-46
2023/08/29 12:04:56;;;;;;;1.77;1.00;;;22.70;99.90;;;;;;5112384;28;20068;-48
2023/08/29 12:07:22;;;;;;;2.45;0.85;;;23.00;99.90;;;;;;5112530;28;20084;-44
2023/08/29 12:09:51;;;;;;;1.90;0.80;;;23.90;99.90;;;;;;5112401;27;20024;-50
2023/08/29 12:12:27;;;;;;;;;;;23.30;98.80;;;;;;5113135;28;20098;-50
2023/08/29 12:14:53;;;;;;;1.23;0.73;;;22.50;95.40;;;;;;5112142;28;19903;-49
2023/08/29 12:17:20;;;;;;;2.28;0.80;;;21.90;98.90;;;;;;5110695;28;20019;-51
2023/08/29 12:19:46;;;;;;;1.83;0.77;;;23.00;99.90;;;;;;5126374;27;20535;-53
2023/08/29 12:22:12;;;;;;;1.50;0.70;;;;;;;;;;5110271;28;20077;-45
2023/08/29 12:24:39;;;;;;;1.98;0.90;;;22.60;99.90;;;;;;5092062;28;20035;-47
2023/08/29 12:27:06;;;;;;;1.45;0.70;;;;;;;;;;5116287;27;20443;-48
2023/08/29 12:29:32;;;;;;;2.17;1.05;;;22.80;99.90;;;;;;5110867;28;20031;-50
2023/08/29 12:31:58;;;;;;;2.60;1.05;;;21.90;99.90;;;;;;5112007;28;20035;-51
2023/08/29 12:34:24;;;;;;;2.88;1.20;;;;;;;;;;5121003;27;20026;-53
2023/08/29 12:36:50;;;;;;;5.15;1.00;;;17.80;99.90;;;;;;5132639;27;20475;-48
2023/08/29 12:39:16;;;;;;;2.08;0.90;;;21.90;99.90;;;;;;5132568;27;20022;-51
2023/08/29 12:41:42;;;;;;;2.25;1.10;;;22.10;99.90;;;;;;5132475;27;20376;-50
2023/08/29 12:44:08;;;;;;;1.83;0.90;;;;;;;;;;5132455;27;20015;-52
2023/08/29 12:46:34;;;;;;;2.05;0.90;;;;;;;;;;5132665;27;20034;-49
2023/08/29 12:49:03;;;;;;;1.88;0.77;;;22.50;99.90;;;;;;5132410;27;20400;-48
2023/08/29 12:51:31;;;;;;;1.07;0.67;;;21.30;99.90;;;;;;5131408;27;20027;-51
2023/08/29 12:53:56;;;;;;;2.10;1.00;;;23.10;99.90;;;;;;5132288;27;20297;-45
2023/08/29 12:56:22;;;;;;;2.08;0.80;;;;;;;;;;5132540;27;20027;-55
2023/08/29 12:58:48;;;;;;;2.25;0.95;;;;;;;;;;5130601;27;20064;-47
2023/08/29 13:01:14;;;;;;;1.52;0.88;;;22.30;99.90;;;;;;5123338;27;20042;-47
2023/08/29 13:03:40;;;;;;;1.05;0.80;;;21.70;99.90;;;;;;5117600;27;20119;-44
2023/08/29 13:06:07;;;;;;;1.75;0.95;;;22.20;99.90;;;;;;5113815;27;20028;-46